| time (UTC) | temp F | wind direction | speed MPH | gust MPH | rain 1hr in | rain 24hr in | rain mn in | humidity % | barometer mb |
| 20260502214009 | 60 | 0.0 | 0.0 | 0.00 | 0.00 | 0.00 | 58 | 1016.3 | |
| 20260502213511 | 60 | 0.0 | 0.0 | 0.00 | 0.00 | 0.00 | 58 | 1016.3 | |
| 20260502213038 | 60 | 0.0 | 0.0 | 0.00 | 0.00 | 0.00 | 57 | 1016.3 | |
| 20260502212510 | 60 | 0.0 | 0.0 | 0.00 | 0.00 | 0.00 | 57 | 1016.4 | |
| 20260502212010 | 60 | 0.0 | 0.0 | 0.00 | 0.00 | 0.00 | 57 | 1016.4 | |
| 20260502211532 | 61 | 0.0 | 0.0 | 0.00 | 0.00 | 0.00 | 57 | 1016.4 | |
| 20260502211007 | 61 | 0.0 | 0.0 | 0.00 | 0.00 | 0.00 | 57 | 1016.4 | |
| 20260502210512 | 61 | 0.0 | 0.0 | 0.00 | 0.00 | 0.00 | 57 | 1016.4 | |
| 20260502210027 | 61 | 0.0 | 0.0 | 0.00 | 0.00 | 0.00 | 56 | 1016.4 | |
| 20260502205509 | 62 | 0.0 | 0.0 | 0.00 | 0.00 | 0.00 | 56 | 1016.4 | |
| 20260502205011 | 62 | 0.0 | 0.0 | 0.00 | 0.00 | 0.00 | 57 | 1016.5 | |
| 20260502204527 | 62 | 0.0 | 0.0 | 0.00 | 0.00 | 0.00 | 56 | 1016.5 | |
| 20260502204016 | 62 | 0.0 | 0.0 | 0.00 | 0.00 | 0.00 | 57 | 1016.5 | |
| 20260502203508 | 62 | 0.0 | 0.0 | 0.00 | 0.00 | 0.00 | 56 | 1016.5 | |
| 20260502203029 | 63 | 0.0 | 0.0 | 0.00 | 0.00 | 0.00 | 55 | 1016.5 | |
| 20260502202514 | 63 | 0.0 | 0.0 | 0.00 | 0.00 | 0.00 | 54 | 1016.5 | |
| 20260502202010 | 63 | 0.0 | 0.0 | 0.00 | 0.00 | 0.00 | 53 | 1016.5 | |
| 20260502201536 | 64 | 0.0 | 0.0 | 0.00 | 0.00 | 0.00 | 53 | 1016.5 | |
| 20260502201010 | 64 | 0.0 | 0.0 | 0.00 | 0.00 | 0.00 | 51 | 1016.5 | |
| 20260502200507 | 64 | 0.0 | 0.0 | 0.00 | 0.00 | 0.00 | 51 | 1016.5 | |
| 20260502200031 | 64 | 0.0 | 0.0 | 0.00 | 0.00 | 0.00 | 51 | 1016.4 | |
| 20260502195507 | 65 | 0.0 | 0.0 | 0.00 | 0.00 | 0.00 | 51 | 1016.5 | |
| 20260502195011 | 65 | 0.0 | 0.0 | 0.00 | 0.00 | 0.00 | 51 | 1016.4 | |
| 20260502194531 | 66 | 0.0 | 0.0 | 0.00 | 0.00 | 0.00 | 50 | 1016.4 | |
| 20260502194007 | 66 | 0.0 | 0.0 | 0.00 | 0.00 | 0.00 | 50 | 1016.4 | |
| 20260502193511 | 66 | 0.0 | 0.0 | 0.00 | 0.00 | 0.00 | 50 | 1016.4 | |
| 20260502193029 | 67 | 0.0 | 0.0 | 0.00 | 0.00 | 0.00 | 49 | 1016.4 | |
| 20260502192508 | 67 | 0.0 | 0.0 | 0.00 | 0.00 | 0.00 | 48 | 1016.2 | |
| 20260502192011 | 68 | 0.0 | 0.0 | 0.00 | 0.00 | 0.00 | 47 | 1016.2 | |
| 20260502191534 | 68 | 0.0 | 0.0 | 0.00 | 0.00 | 0.00 | 47 | 1016.2 | |
| 20260502191010 | 68 | 0.0 | 0.0 | 0.00 | 0.00 | 0.00 | 46 | 1016.2 | |
| 20260502190510 | 69 | 0.0 | 0.0 | 0.00 | 0.00 | 0.00 | 45 | 1016.2 | |
| 20260502190028 | 69 | 0.0 | 0.0 | 0.00 | 0.00 | 0.00 | 44 | 1016.1 | |
| 20260502185509 | 69 | 0.0 | 0.0 | 0.00 | 0.00 | 0.00 | 44 | 1016.1 | |
| 20260502185011 | 70 | 0.0 | 0.0 | 0.00 | 0.00 | 0.00 | 43 | 1016.1 | |
| 20260502184536 | 70 | 0.0 | 0.0 | 0.00 | 0.00 | 0.00 | 43 | 1016.1 | |
| 20260502184010 | 70 | 0.0 | 0.0 | 0.00 | 0.00 | 0.00 | 42 | 1016.0 | |
| 20260502183510 | 71 | 0.0 | 1.0 | 0.00 | 0.00 | 0.00 | 42 | 1016.0 | |
| 20260502183030 | 71 | 0 | 0.0 | 3.0 | 0.00 | 0.00 | 0.00 | 41 | 1016.0 |
| 20260502182508 | 71 | 0 | 0.0 | 4.0 | 0.00 | 0.00 | 0.00 | 41 | 1016.0 |
| 20260502182012 | 71 | 171 | 0.0 | 4.0 | 0.00 | 0.00 | 0.00 | 41 | 1016.0 |
| 20260502181528 | 71 | 171 | 1.0 | 4.0 | 0.00 | 0.00 | 0.00 | 40 | 1016.0 |
| 20260502181007 | 71 | 171 | 1.0 | 4.0 | 0.00 | 0.00 | 0.00 | 40 | 1016.1 |
| 20260502180507 | 71 | 171 | 0.0 | 5.0 | 0.00 | 0.00 | 0.00 | 40 | 1016.1 |
| 20260502170512 | 73 | 173 | 3.0 | 11.0 | 0.00 | 0.00 | 0.00 | 36 | 1016.3 |
| 20260502164012 | 74 | 119 | 4.0 | 11.0 | 0.00 | 0.00 | 0.00 | 36 | 1016.2 |
| 20260502163510 | 75 | 185 | 3.0 | 11.0 | 0.00 | 0.00 | 0.00 | 36 | 1016.3 |
| 20260502163033 | 75 | 172 | 3.0 | 12.0 | 0.00 | 0.00 | 0.00 | 36 | 1016.4 |
| 20260502162513 | 75 | 155 | 5.0 | 12.0 | 0.00 | 0.00 | 0.00 | 36 | 1016.4 |
| 20260502162011 | 75 | 80 | 4.0 | 10.0 | 0.00 | 0.00 | 0.00 | 35 | 1016.4 |
| 20260502161532 | 75 | 158 | 4.0 | 13.0 | 0.00 | 0.00 | 0.00 | 36 | 1016.5 |
| 20260502161012 | 75 | 148 | 3.0 | 14.0 | 0.00 | 0.00 | 0.00 | 38 | 1016.5 |
| 20260502160513 | 75 | 177 | 5.0 | 14.0 | 0.00 | 0.00 | 0.00 | 37 | 1016.6 |
| 20260502152017 | 75 | 152 | 5.0 | 12.0 | 0.00 | 0.00 | 0.00 | 41 | 1017.0 |
| 20260502151528 | 75 | 108 | 4.0 | 12.0 | 0.00 | 0.00 | 0.00 | 40 | 1017.0 |
| 20260502151011 | 75 | 115 | 7.0 | 13.0 | 0.00 | 0.00 | 0.00 | 40 | 1017.2 |
| 20260502150511 | 75 | 122 | 6.0 | 13.0 | 0.00 | 0.00 | 0.00 | 41 | 1017.3 |
| 20260502130508 | 76 | 104 | 5.0 | 10.0 | 0.00 | 0.00 | 0.00 | 51 | 1018.8 |
| 20260502123510 | 76 | 98 | 2.0 | 9.0 | 0.00 | 0.00 | 0.00 | 50 | 1019.2 |
| 20260502123030 | 76 | 96 | 3.0 | 9.0 | 0.00 | 0.00 | 0.00 | 50 | 1019.3 |
| 20260502122511 | 76 | 120 | 4.0 | 10.0 | 0.00 | 0.00 | 0.00 | 50 | 1019.4 |
| 20260502122014 | 76 | 146 | 4.0 | 10.0 | 0.00 | 0.00 | 0.00 | 50 | 1019.5 |
| 20260502121531 | 76 | 130 | 5.0 | 10.0 | 0.00 | 0.00 | 0.00 | 50 | 1019.5 |
| 20260502121008 | 76 | 148 | 3.0 | 10.0 | 0.00 | 0.00 | 0.00 | 51 | 1019.6 |
| 20260502120508 | 76 | 0 | 5.0 | 12.0 | 0.00 | 0.00 | 0.00 | 49 | 1019.7 |
| 20260502115512 | 76 | 168 | 4.0 | 12.0 | 0.00 | 0.00 | 0.00 | 50 | 1019.8 |
| 20260502115010 | 76 | 119 | 4.0 | 12.0 | 0.00 | 0.00 | 0.00 | 50 | 1019.9 |
| 20260502114530 | 76 | 90 | 5.0 | 12.0 | 0.00 | 0.00 | 0.00 | 50 | 1020.0 |
| 20260502114012 | 75 | 145 | 3.0 | 12.0 | 0.00 | 0.00 | 0.00 | 50 | 1020.0 |
| 20260502113510 | 75 | 86 | 5.0 | 10.0 | 0.00 | 0.00 | 0.00 | 50 | 1020.1 |
| 20260502113029 | 75 | 87 | 4.0 | 10.0 | 0.00 | 0.00 | 0.00 | 51 | 1020.1 |
| 20260502112507 | 74 | 84 | 3.0 | 11.0 | 0.00 | 0.00 | 0.00 | 52 | 1020.1 |
| 20260502112012 | 74 | 0 | 4.0 | 11.0 | 0.00 | 0.00 | 0.00 | 50 | 1020.2 |
| 20260502111526 | 74 | 128 | 5.0 | 10.0 | 0.00 | 0.00 | 0.00 | 51 | 1020.3 |
| 20260502111007 | 74 | 114 | 4.0 | 10.0 | 0.00 | 0.00 | 0.00 | 50 | 1020.2 |
| 20260502110510 | 73 | 107 | 5.0 | 10.0 | 0.00 | 0.00 | 0.00 | 50 | 1020.3 |
| 20260502110028 | 73 | 119 | 5.0 | 12.0 | 0.00 | 0.00 | 0.00 | 49 | 1020.3 |
| 20260502105507 | 73 | 95 | 6.0 | 12.0 | 0.00 | 0.00 | 0.00 | 48 | 1020.4 |
| 20260502105010 | 73 | 90 | 4.0 | 11.0 | 0.00 | 0.00 | 0.00 | 47 | 1020.4 |
| 20260502104533 | 73 | 0 | 4.0 | 11.0 | 0.00 | 0.00 | 0.00 | 48 | 1020.5 |
| 20260502104009 | 73 | 92 | 5.0 | 10.0 | 0.00 | 0.00 | 0.00 | 48 | 1020.5 |
| 20260502103510 | 72 | 92 | 3.0 | 10.0 | 0.00 | 0.00 | 0.00 | 47 | 1020.6 |
| 20260502103029 | 72 | 96 | 4.0 | 12.0 | 0.00 | 0.00 | 0.00 | 47 | 1020.7 |
| 20260502102513 | 72 | 104 | 4.0 | 12.0 | 0.00 | 0.00 | 0.00 | 47 | 1020.8 |
| 20260502102008 | 72 | 113 | 5.0 | 12.0 | 0.00 | 0.00 | 0.00 | 46 | 1020.8 |
| 20260502101529 | 72 | 111 | 6.0 | 12.0 | 0.00 | 0.00 | 0.00 | 45 | 1021.0 |
| 20260502101011 | 72 | 120 | 4.0 | 11.0 | 0.00 | 0.00 | 0.00 | 46 | 1020.9 |
| 20260502100509 | 71 | 91 | 5.0 | 11.0 | 0.00 | 0.00 | 0.00 | 47 | 1021.0 |
| 20260502091528 | 68 | 109 | 4.0 | 10.0 | 0.00 | 0.00 | 0.00 | 49 | 1021.1 |
| 20260502091010 | 68 | 101 | 4.0 | 9.0 | 0.00 | 0.00 | 0.00 | 49 | 1021.1 |
| 20260502090507 | 67 | 126 | 3.0 | 9.0 | 0.00 | 0.00 | 0.00 | 50 | 1021.1 |
| 20260502071526 | 56 | 0.0 | 0.0 | 0.00 | 0.00 | 0.00 | 63 | 1022.0 | |
| 20260502071010 | 56 | 0.0 | 0.0 | 0.00 | 0.00 | 0.00 | 62 | 1022.2 | |
| 20260502070509 | 56 | 0.0 | 0.0 | 0.00 | 0.00 | 0.00 | 62 | 1022.3 | |
| 20260502070052 | 56 | 0.0 | 0.0 | 0.00 | 0.00 | 0.00 | 61 | 1022.4 | |
| 20260502065511 | 55 | 0.0 | 0.0 | 0.00 | 0.00 | 0.00 | 61 | 1022.7 | |
| 20260502065013 | 55 | 0.0 | 0.0 | 0.00 | 0.00 | 0.00 | 61 | 1022.5 | |
| 20260502064528 | 55 | 0.0 | 0.0 | 0.00 | 0.00 | 0.00 | 62 | 1022.3 | |
| 20260502064014 | 54 | 0.0 | 0.0 | 0.00 | 0.00 | 0.00 | 64 | 1022.0 | |
| 20260502063513 | 53 | 0.0 | 0.0 | 0.00 | 0.00 | 0.00 | 66 | 1022.0 | |
| 20260502063034 | 53 | 0.0 | 0.0 | 0.00 | 0.00 | 0.00 | 67 | 1022.1 | |
| 20260502062511 | 52 | 0.0 | 0.0 | 0.00 | 0.00 | 0.00 | 69 | 1021.9 | |
| 20260502062009 | 51 | 0.0 | 0.0 | 0.00 | 0.00 | 0.00 | 70 | 1021.9 | |
| 20260502061530 | 51 | 0.0 | 0.0 | 0.00 | 0.00 | 0.00 | 71 | 1022.0 | |
| 20260502061009 | 50 | 0.0 | 0.0 | 0.00 | 0.00 | 0.00 | 72 | 1022.1 | |
| 20260502060509 | 50 | 0.0 | 0.0 | 0.00 | 0.00 | 0.00 | 72 | 1022.2 | |
| 20260502060038 | 50 | 0.0 | 0.0 | 0.00 | 0.00 | 0.00 | 73 | 1022.2 | |
| 20260502055511 | 49 | 0.0 | 0.0 | 0.00 | 0.00 | 0.00 | 73 | 1022.2 | |
| 20260502055011 | 49 | 0.0 | 0.0 | 0.00 | 0.00 | 0.00 | 74 | 1022.3 | |
| 20260502054540 | 49 | 0.0 | 0.0 | 0.00 | 0.00 | 0.00 | 75 | 1022.4 | |
| 20260502054011 | 48 | 0.0 | 0.0 | 0.00 | 0.00 | 0.00 | 76 | 1022.4 | |
| 20260502053510 | 48 | 0.0 | 0.0 | 0.00 | 0.00 | 0.00 | 76 | 1022.5 | |
| 20260502053030 | 48 | 0.0 | 0.0 | 0.00 | 0.00 | 0.00 | 76 | 1022.6 | |
| 20260502052514 | 48 | 0.0 | 0.0 | 0.00 | 0.00 | 0.00 | 76 | 1022.7 | |
| 20260502052011 | 47 | 0.0 | 0.0 | 0.00 | 0.00 | 0.00 | 76 | 1022.6 | |
| 20260502051529 | 47 | 0.0 | 0.0 | 0.00 | 0.00 | 0.00 | 77 | 1022.9 | |
| 20260502051013 | 47 | 0.0 | 0.0 | 0.00 | 0.00 | 0.00 | 77 | 1022.9 | |
| 20260502050509 | 46 | 0.0 | 0.0 | 0.00 | 0.00 | 0.00 | 77 | 1022.7 | |
| 20260502050030 | 46 | 0.0 | 0.0 | 0.00 | 0.00 | 0.00 | 77 | 1022.6 | |
| 20260502045507 | 46 | 0.0 | 0.0 | 0.00 | 0.00 | 0.00 | 77 | 1022.4 | |
| 20260502045012 | 46 | 0.0 | 0.0 | 0.00 | 0.00 | 0.00 | 77 | 1022.5 | |
| 20260502044528 | 46 | 0.0 | 0.0 | 0.00 | 0.00 | 0.00 | 76 | 1022.3 | |
| 20260502044010 | 46 | 0.0 | 0.0 | 0.00 | 0.00 | 0.00 | 76 | 1022.3 | |
| 20260502043510 | 46 | 0.0 | 0.0 | 0.00 | 0.00 | 0.00 | 75 | 1022.3 | |
| 20260502043028 | 46 | 0.0 | 0.0 | 0.00 | 0.00 | 0.00 | 75 | 1022.3 | |
| 20260502042510 | 46 | 0.0 | 0.0 | 0.00 | 0.00 | 0.00 | 74 | 1022.3 | |
| 20260502042012 | 46 | 0.0 | 0.0 | 0.00 | 0.00 | 0.00 | 74 | 1022.2 | |
| 20260502041543 | 46 | 0.0 | 0.0 | 0.00 | 0.00 | 0.00 | 74 | 1022.2 | |
| 20260502041010 | 46 | 0.0 | 0.0 | 0.00 | 0.00 | 0.00 | 74 | 1022.1 | |
| 20260502040510 | 46 | 0.0 | 0.0 | 0.00 | 0.00 | 0.00 | 74 | 1022.1 | |
| 20260502040044 | 46 | 0.0 | 0.0 | 0.00 | 0.00 | 0.00 | 74 | 1022.1 | |
| 20260502035509 | 46 | 0.0 | 0.0 | 0.00 | 0.00 | 0.00 | 74 | 1022.0 | |
| 20260502035011 | 46 | 0.0 | 0.0 | 0.00 | 0.00 | 0.00 | 74 | 1022.1 | |
| 20260502034530 | 45 | 0.0 | 0.0 | 0.00 | 0.00 | 0.00 | 74 | 1022.1 | |
| 20260502034012 | 45 | 0.0 | 0.0 | 0.00 | 0.00 | 0.00 | 74 | 1022.1 | |
| 20260502033514 | 45 | 0.0 | 0.0 | 0.00 | 0.00 | 0.00 | 75 | 1022.2 | |
| 20260502033033 | 45 | 0.0 | 0.0 | 0.00 | 0.00 | 0.00 | 75 | 1022.2 | |
| 20260502032509 | 45 | 0.0 | 0.0 | 0.00 | 0.00 | 0.00 | 75 | 1022.1 | |
| 20260502032007 | 45 | 0.0 | 0.0 | 0.00 | 0.00 | 0.00 | 75 | 1022.2 | |
| 20260502031528 | 45 | 0.0 | 0.0 | 0.00 | 0.00 | 0.00 | 75 | 1022.3 | |
| 20260502031009 | 45 | 0.0 | 0.0 | 0.00 | 0.00 | 0.00 | 75 | 1022.4 | |
| 20260502030509 | 45 | 0.0 | 0.0 | 0.00 | 0.00 | 0.00 | 74 | 1022.7 | |
| 20260502030031 | 45 | 0.0 | 0.0 | 0.00 | 0.00 | 0.00 | 74 | 1022.8 | |
| 20260502025508 | 45 | 0.0 | 0.0 | 0.00 | 0.00 | 0.00 | 74 | 1022.9 | |
| 20260502025012 | 45 | 0.0 | 0.0 | 0.00 | 0.00 | 0.00 | 74 | 1022.9 | |
| 20260502024530 | 45 | 0.0 | 0.0 | 0.00 | 0.00 | 0.00 | 74 | 1023.3 | |
| 20260502024010 | 45 | 0.0 | 0.0 | 0.00 | 0.00 | 0.00 | 73 | 1022.8 | |
| 20260502023511 | 46 | 0.0 | 0.0 | 0.00 | 0.00 | 0.00 | 72 | 1022.4 | |
| 20260502023037 | 46 | 0.0 | 0.0 | 0.00 | 0.00 | 0.00 | 71 | 1022.5 | |
| 20260502022507 | 46 | 0.0 | 0.0 | 0.00 | 0.00 | 0.00 | 71 | 1022.6 | |
| 20260502022009 | 46 | 0.0 | 0.0 | 0.00 | 0.00 | 0.00 | 70 | 1022.4 | |
| 20260502021530 | 46 | 0.0 | 0.0 | 0.00 | 0.00 | 0.00 | 70 | 1022.4 | |
| 20260502021010 | 46 | 0.0 | 0.0 | 0.00 | 0.00 | 0.00 | 70 | 1022.4 | |
| 20260502020511 | 46 | 0.0 | 0.0 | 0.00 | 0.00 | 0.00 | 70 | 1022.4 | |
| 20260502020028 | 46 | 0.0 | 0.0 | 0.00 | 0.00 | 0.00 | 69 | 1022.5 | |
| 20260502015512 | 46 | 0.0 | 0.0 | 0.00 | 0.00 | 0.00 | 70 | 1022.7 | |
| 20260502015012 | 46 | 0.0 | 0.0 | 0.00 | 0.00 | 0.00 | 70 | 1022.6 | |
| 20260502014531 | 46 | 0.0 | 0.0 | 0.00 | 0.00 | 0.00 | 70 | 1022.7 | |
| 20260502014011 | 46 | 0.0 | 0.0 | 0.00 | 0.00 | 0.00 | 70 | 1022.7 | |
| 20260502013510 | 46 | 0.0 | 0.0 | 0.00 | 0.00 | 0.00 | 71 | 1022.8 | |
| 20260502013028 | 46 | 0.0 | 0.0 | 0.00 | 0.00 | 0.00 | 70 | 1022.9 | |
| 20260502012511 | 46 | 0.0 | 0.0 | 0.00 | 0.00 | 0.00 | 70 | 1022.7 | |
| 20260502012011 | 46 | 0.0 | 0.0 | 0.00 | 0.00 | 0.00 | 70 | 1022.8 | |
| 20260502011532 | 46 | 0.0 | 0.0 | 0.00 | 0.00 | 0.00 | 70 | 1022.8 | |
| 20260502011009 | 46 | 0.0 | 0.0 | 0.00 | 0.00 | 0.00 | 70 | 1022.9 | |
| 20260502010509 | 47 | 0.0 | 0.0 | 0.00 | 0.00 | 0.00 | 70 | 1022.7 | |
| 20260502010031 | 47 | 0.0 | 0.0 | 0.00 | 0.00 | 0.00 | 70 | 1022.8 | |
| 20260502005511 | 47 | 0.0 | 0.0 | 0.00 | 0.00 | 0.00 | 69 | 1022.8 | |
| 20260502005011 | 47 | 0.0 | 0.0 | 0.00 | 0.00 | 0.00 | 69 | 1023.0 | |
| 20260502004528 | 47 | 0.0 | 0.0 | 0.00 | 0.00 | 0.00 | 69 | 1023.0 | |
| 20260502004010 | 47 | 0.0 | 0.0 | 0.00 | 0.00 | 0.00 | 69 | 1023.1 | |
| 20260502003509 | 47 | 0.0 | 0.0 | 0.00 | 0.00 | 0.00 | 69 | 1023.2 | |
| 20260502003028 | 47 | 0.0 | 0.0 | 0.00 | 0.00 | 0.00 | 69 | 1023.1 | |
| 20260502002510 | 47 | 0.0 | 0.0 | 0.00 | 0.00 | 0.00 | 68 | 1023.1 | |
| 20260502002011 | 47 | 0.0 | 0.0 | 0.00 | 0.00 | 0.00 | 69 | 1023.3 | |
| 20260502001537 | 47 | 0.0 | 0.0 | 0.00 | 0.00 | 0.00 | 68 | 1023.4 | |
| 20260502001010 | 47 | 0.0 | 0.0 | 0.00 | 0.00 | 0.00 | 66 | 1023.2 | |
| 20260502000510 | 48 | 0.0 | 0.0 | 0.00 | 0.00 | 0.00 | 64 | 1023.0 | |
| 20260502000049 | 48 | 0.0 | 0.0 | 0.00 | 0.00 | 0.00 | 64 | 1023.1 | |
| 20260501235509 | 48 | 0.0 | 0.0 | 0.00 | 0.00 | 0.00 | 64 | 1023.1 | |
| 20260501235010 | 48 | 0.0 | 0.0 | 0.00 | 0.00 | 0.00 | 63 | 1023.1 | |
| 20260501234528 | 48 | 0.0 | 0.0 | 0.00 | 0.00 | 0.00 | 64 | 1023.0 | |
| 20260501234012 | 48 | 0.0 | 0.0 | 0.00 | 0.00 | 0.00 | 63 | 1023.0 | |
| 20260501233510 | 48 | 0.0 | 0.0 | 0.00 | 0.00 | 0.00 | 62 | 1023.1 | |
| 20260501233030 | 49 | 0.0 | 0.0 | 0.00 | 0.00 | 0.00 | 62 | 1023.0 | |
| 20260501232519 | 49 | 0.0 | 0.0 | 0.00 | 0.00 | 0.00 | 61 | 1023.2 | |
| 20260501232018 | 49 | 0.0 | 0.0 | 0.00 | 0.00 | 0.00 | 61 | 1023.2 | |
| 20260501231530 | 49 | 0.0 | 0.0 | 0.00 | 0.00 | 0.00 | 60 | 1023.1 | |
| 20260501231009 | 49 | 0.0 | 0.0 | 0.00 | 0.00 | 0.00 | 60 | 1023.2 | |
| 20260501230515 | 50 | 0.0 | 0.0 | 0.00 | 0.00 | 0.00 | 59 | 1023.3 | |
| 20260501230104 | 50 | 0.0 | 0.0 | 0.00 | 0.00 | 0.00 | 59 | 1023.2 | |
| 20260501225512 | 50 | 0.0 | 0.0 | 0.00 | 0.00 | 0.00 | 59 | 1023.2 | |
| 20260501225015 | 50 | 0.0 | 0.0 | 0.00 | 0.00 | 0.00 | 59 | 1023.3 | |
| 20260501224530 | 50 | 0.0 | 0.0 | 0.00 | 0.00 | 0.00 | 58 | 1023.4 | |
| 20260501224012 | 51 | 0.0 | 0.0 | 0.00 | 0.00 | 0.00 | 58 | 1023.4 | |
| 20260501223511 | 51 | 0.0 | 0.0 | 0.00 | 0.00 | 0.00 | 58 | 1023.4 | |
| 20260501223028 | 51 | 0.0 | 0.0 | 0.00 | 0.00 | 0.00 | 58 | 1023.4 | |
| 20260501222511 | 51 | 0.0 | 0.0 | 0.00 | 0.00 | 0.00 | 57 | 1023.5 | |
| 20260501222011 | 52 | 0.0 | 0.0 | 0.00 | 0.00 | 0.00 | 57 | 1023.5 | |
| 20260501221528 | 52 | 0.0 | 0.0 | 0.00 | 0.00 | 0.00 | 57 | 1023.6 | |
| 20260501221012 | 52 | 0.0 | 0.0 | 0.00 | 0.00 | 0.00 | 57 | 1023.6 | |
| 20260501220511 | 52 | 0.0 | 0.0 | 0.00 | 0.00 | 0.00 | 57 | 1023.7 | |
| 20260501220028 | 52 | 0.0 | 0.0 | 0.00 | 0.00 | 0.00 | 58 | 1023.8 | |
| 20260501215513 | 53 | 0.0 | 0.0 | 0.00 | 0.00 | 0.00 | 57 | 1023.7 | |
| 20260501215011 | 53 | 0.0 | 0.0 | 0.00 | 0.00 | 0.00 | 56 | 1023.8 | |
| 20260501214533 | 53 | 0.0 | 0.0 | 0.00 | 0.00 | 0.00 | 56 | 1023.6 |